sensor_id;sensor_type;location;lat;lon;timestamp;temperature;humidity
51863;DHT22;37900;52.996;6.278;2024-03-06T00:02:18;16.20;86.90
51863;DHT22;37900;52.996;6.278;2024-03-06T00:04:44;16.20;87.40
51863;DHT22;37900;52.996;6.278;2024-03-06T00:07:10;16.20;87.30
51863;DHT22;37900;52.996;6.278;2024-03-06T00:09:36;16.20;87.30
51863;DHT22;37900;52.996;6.278;2024-03-06T00:12:02;16.20;87.30
51863;DHT22;37900;52.996;6.278;2024-03-06T00:14:27;16.20;87.10
51863;DHT22;37900;52.996;6.278;2024-03-06T00:16:53;16.20;86.60
51863;DHT22;37900;52.996;6.278;2024-03-06T00:19:21;16.20;87.00
51863;DHT22;37900;52.996;6.278;2024-03-06T00:21:46;16.20;87.00
51863;DHT22;37900;52.996;6.278;2024-03-06T00:24:12;16.20;86.90
51863;DHT22;37900;52.996;6.278;2024-03-06T00:26:41;16.20;86.30
51863;DHT22;37900;52.996;6.278;2024-03-06T00:29:07;16.20;86.80
51863;DHT22;37900;52.996;6.278;2024-03-06T00:31:33;16.20;86.80
51863;DHT22;37900;52.996;6.278;2024-03-06T00:33:59;16.20;86.70
51863;DHT22;37900;52.996;6.278;2024-03-06T00:36:25;16.20;86.60
51863;DHT22;37900;52.996;6.278;2024-03-06T00:38:50;16.10;86.60
51863;DHT22;37900;52.996;6.278;2024-03-06T00:41:16;16.20;86.60
51863;DHT22;37900;52.996;6.278;2024-03-06T00:43:41;16.10;85.90
51863;DHT22;37900;52.996;6.278;2024-03-06T00:46:07;16.10;86.40
51863;DHT22;37900;52.996;6.278;2024-03-06T00:48:33;16.10;86.40
51863;DHT22;37900;52.996;6.278;2024-03-06T00:50:58;16.10;86.30
51863;DHT22;37900;52.996;6.278;2024-03-06T00:53:24;16.10;86.20
51863;DHT22;37900;52.996;6.278;2024-03-06T00:55:49;16.10;86.40
51863;DHT22;37900;52.996;6.278;2024-03-06T00:58:15;16.10;85.60
51863;DHT22;37900;52.996;6.278;2024-03-06T01:00:41;19.90;87.60
51863;DHT22;37900;52.996;6.278;2024-03-06T01:03:06;16.10;86.00
51863;DHT22;37900;52.996;6.278;2024-03-06T01:05:32;16.10;85.90
51863;DHT22;37900;52.996;6.278;2024-03-06T01:07:57;16.10;85.90
51863;DHT22;37900;52.996;6.278;2024-03-06T01:10:24;16.10;85.80
51863;DHT22;37900;52.996;6.278;2024-03-06T01:12:50;16.10;85.90
51863;DHT22;37900;52.996;6.278;2024-03-06T01:15:15;16.10;85.20
51863;DHT22;37900;52.996;6.278;2024-03-06T01:17:41;16.00;85.70
51863;DHT22;37900;52.996;6.278;2024-03-06T01:20:06;16.00;85.60
51863;DHT22;37900;52.996;6.278;2024-03-06T01:22:35;16.00;85.50
51863;DHT22;37900;52.996;6.278;2024-03-06T01:25:01;16.00;85.50
51863;DHT22;37900;52.996;6.278;2024-03-06T01:27:27;16.00;84.90
51863;DHT22;37900;52.996;6.278;2024-03-06T01:29:53;16.00;85.40
51863;DHT22;37900;52.996;6.278;2024-03-06T01:32:18;16.00;85.30
51863;DHT22;37900;52.996;6.278;2024-03-06T01:34:44;16.00;85.30
51863;DHT22;37900;52.996;6.278;2024-03-06T01:37:09;16.00;85.30
51863;DHT22;37900;52.996;6.278;2024-03-06T01:39:35;16.00;85.30
51863;DHT22;37900;52.996;6.278;2024-03-06T01:42:01;16.00;85.30
51863;DHT22;37900;52.996;6.278;2024-03-06T01:44:27;16.00;85.20
51863;DHT22;37900;52.996;6.278;2024-03-06T01:46:52;16.00;85.10
51863;DHT22;37900;52.996;6.278;2024-03-06T01:49:19;16.00;85.10
51863;DHT22;37900;52.996;6.278;2024-03-06T01:51:48;16.00;85.10
51863;DHT22;37900;52.996;6.278;2024-03-06T01:54:15;15.90;84.90
51863;DHT22;37900;52.996;6.278;2024-03-06T01:56:43;16.00;84.90
51863;DHT22;37900;52.996;6.278;2024-03-06T01:59:10;16.00;84.90
51863;DHT22;37900;52.996;6.278;2024-03-06T02:01:36;17.60;85.10
51863;DHT22;37900;52.996;6.278;2024-03-06T02:04:02;15.90;84.30
51863;DHT22;37900;52.996;6.278;2024-03-06T02:06:28;15.90;84.60
51863;DHT22;37900;52.996;6.278;2024-03-06T02:08:53;15.90;84.80
51863;DHT22;37900;52.996;6.278;2024-03-06T02:11:19;15.90;84.60
51863;DHT22;37900;52.996;6.278;2024-03-06T02:13:45;15.90;84.70
51863;DHT22;37900;52.996;6.278;2024-03-06T02:16:10;15.90;83.90
51863;DHT22;37900;52.996;6.278;2024-03-06T02:18:36;15.90;83.90
51863;DHT22;37900;52.996;6.278;2024-03-06T02:21:02;15.90;84.50
51863;DHT22;37900;52.996;6.278;2024-03-06T02:23:28;15.90;84.30
51863;DHT22;37900;52.996;6.278;2024-03-06T02:25:53;19.00;86.00
51863;DHT22;37900;52.996;6.278;2024-03-06T02:28:19;15.90;84.20
51863;DHT22;37900;52.996;6.278;2024-03-06T02:30:45;15.90;84.30
51863;DHT22;37900;52.996;6.278;2024-03-06T02:33:10;15.80;84.10
51863;DHT22;37900;52.996;6.278;2024-03-06T02:35:36;15.90;84.20
51863;DHT22;37900;52.996;6.278;2024-03-06T02:38:03;15.90;84.10
51863;DHT22;37900;52.996;6.278;2024-03-06T02:40:32;15.80;83.50
51863;DHT22;37900;52.996;6.278;2024-03-06T02:42:58;15.90;84.00
51863;DHT22;37900;52.996;6.278;2024-03-06T02:45:24;15.80;84.00
51863;DHT22;37900;52.996;6.278;2024-03-06T02:47:49;15.80;83.40
51863;DHT22;37900;52.996;6.278;2024-03-06T02:50:15;15.90;84.00
51863;DHT22;37900;52.996;6.278;2024-03-06T02:52:41;15.80;83.80
51863;DHT22;37900;52.996;6.278;2024-03-06T02:55:06;15.80;83.80
51863;DHT22;37900;52.996;6.278;2024-03-06T02:57:32;15.80;83.70
51863;DHT22;37900;52.996;6.278;2024-03-06T02:59:58;15.80;83.70
51863;DHT22;37900;52.996;6.278;2024-03-06T03:02:24;15.80;83.70
51863;DHT22;37900;52.996;6.278;2024-03-06T03:04:53;15.80;83.70
51863;DHT22;37900;52.996;6.278;2024-03-06T03:07:19;15.80;83.50
51863;DHT22;37900;52.996;6.278;2024-03-06T03:09:48;15.80;83.70
51863;DHT22;37900;52.996;6.278;2024-03-06T03:12:14;15.80;83.60
51863;DHT22;37900;52.996;6.278;2024-03-06T03:14:40;20.00;85.70
51863;DHT22;37900;52.996;6.278;2024-03-06T03:17:06;15.80;83.50
51863;DHT22;37900;52.996;6.278;2024-03-06T03:19:32;15.70;83.40
51863;DHT22;37900;52.996;6.278;2024-03-06T03:21:57;15.80;82.90
51863;DHT22;37900;52.996;6.278;2024-03-06T03:24:23;15.70;83.30
51863;DHT22;37900;52.996;6.278;2024-03-06T03:26:51;15.80;83.40
51863;DHT22;37900;52.996;6.278;2024-03-06T03:29:17;15.80;83.30
51863;DHT22;37900;52.996;6.278;2024-03-06T03:31:42;15.80;83.30
51863;DHT22;37900;52.996;6.278;2024-03-06T03:34:08;15.80;83.30
51863;DHT22;37900;52.996;6.278;2024-03-06T03:36:34;15.80;83.30
51863;DHT22;37900;52.996;6.278;2024-03-06T03:39:00;15.70;83.10
51863;DHT22;37900;52.996;6.278;2024-03-06T03:41:25;17.10;83.80
51863;DHT22;37900;52.996;6.278;2024-03-06T03:43:51;15.70;83.10
51863;DHT22;37900;52.996;6.278;2024-03-06T03:46:17;15.70;83.00
51863;DHT22;37900;52.996;6.278;2024-03-06T03:48:42;15.70;83.00
51863;DHT22;37900;52.996;6.278;2024-03-06T03:51:08;15.70;83.00
51863;DHT22;37900;52.996;6.278;2024-03-06T03:53:34;15.70;82.40
51863;DHT22;37900;52.996;6.278;2024-03-06T03:55:59;15.70;83.00
51863;DHT22;37900;52.996;6.278;2024-03-06T03:58:25;17.70;84.00
51863;DHT22;37900;52.996;6.278;2024-03-06T04:00:51;15.60;82.30
51863;DHT22;37900;52.996;6.278;2024-03-06T04:03:21;15.60;82.70
51863;DHT22;37900;52.996;6.278;2024-03-06T04:05:47;15.70;82.30
51863;DHT22;37900;52.996;6.278;2024-03-06T04:08:12;15.70;82.80
51863;DHT22;37900;52.996;6.278;2024-03-06T04:10:38;17.00;83.40
51863;DHT22;37900;52.996;6.278;2024-03-06T04:13:04;15.70;82.70
51863;DHT22;37900;52.996;6.278;2024-03-06T04:15:29;15.70;82.80
51863;DHT22;37900;52.996;6.278;2024-03-06T04:17:56;15.60;82.70
51863;DHT22;37900;52.996;6.278;2024-03-06T04:20:22;15.60;82.60
51863;DHT22;37900;52.996;6.278;2024-03-06T04:22:47;15.70;82.60
51863;DHT22;37900;52.996;6.278;2024-03-06T04:25:16;15.60;82.80
51863;DHT22;37900;52.996;6.278;2024-03-06T04:27:42;15.60;82.60
51863;DHT22;37900;52.996;6.278;2024-03-06T04:30:07;15.60;82.60
51863;DHT22;37900;52.996;6.278;2024-03-06T04:32:33;15.60;82.50
51863;DHT22;37900;52.996;6.278;2024-03-06T04:34:59;15.60;83.10
51863;DHT22;37900;52.996;6.278;2024-03-06T04:37:24;15.60;81.90
51863;DHT22;37900;52.996;6.278;2024-03-06T04:39:52;15.60;82.70
51863;DHT22;37900;52.996;6.278;2024-03-06T04:42:17;15.60;82.40
51863;DHT22;37900;52.996;6.278;2024-03-06T04:44:44;15.60;82.40
51863;DHT22;37900;52.996;6.278;2024-03-06T04:47:10;15.60;82.30
51863;DHT22;37900;52.996;6.278;2024-03-06T04:49:35;15.60;82.40
51863;DHT22;37900;52.996;6.278;2024-03-06T04:52:01;15.60;82.40
51863;DHT22;37900;52.996;6.278;2024-03-06T04:54:27;15.60;81.80
51863;DHT22;37900;52.996;6.278;2024-03-06T04:56:52;15.60;82.30
51863;DHT22;37900;52.996;6.278;2024-03-06T04:59:18;15.60;81.70
51863;DHT22;37900;52.996;6.278;2024-03-06T05:01:43;15.60;82.30
51863;DHT22;37900;52.996;6.278;2024-03-06T05:04:09;15.50;82.20
51863;DHT22;37900;52.996;6.278;2024-03-06T05:06:37;15.60;82.20
51863;DHT22;37900;52.996;6.278;2024-03-06T05:09:02;15.50;82.20
51863;DHT22;37900;52.996;6.278;2024-03-06T05:11:28;15.50;82.10
51863;DHT22;37900;52.996;6.278;2024-03-06T05:13:55;15.50;81.60
51863;DHT22;37900;52.996;6.278;2024-03-06T05:16:20;15.50;82.10
51863;DHT22;37900;52.996;6.278;2024-03-06T05:18:48;15.50;82.10
51863;DHT22;37900;52.996;6.278;2024-03-06T05:21:15;15.50;81.50
51863;DHT22;37900;52.996;6.278;2024-03-06T05:23:41;15.50;82.20
51863;DHT22;37900;52.996;6.278;2024-03-06T05:26:06;15.50;82.10
51863;DHT22;37900;52.996;6.278;2024-03-06T05:28:33;15.50;81.50
51863;DHT22;37900;52.996;6.278;2024-03-06T05:30:59;15.50;82.00
51863;DHT22;37900;52.996;6.278;2024-03-06T05:33:26;15.50;82.00
51863;DHT22;37900;52.996;6.278;2024-03-06T05:35:53;15.50;81.50
51863;DHT22;37900;52.996;6.278;2024-03-06T05:38:19;15.50;82.00
51863;DHT22;37900;52.996;6.278;2024-03-06T05:40:45;15.40;81.90
51863;DHT22;37900;52.996;6.278;2024-03-06T05:43:10;15.50;82.00
51863;DHT22;37900;52.996;6.278;2024-03-06T05:45:36;15.50;81.90
51863;DHT22;37900;52.996;6.278;2024-03-06T05:48:02;15.50;81.90
51863;DHT22;37900;52.996;6.278;2024-03-06T05:50:29;15.50;81.90
51863;DHT22;37900;52.996;6.278;2024-03-06T05:52:55;15.50;81.90
51863;DHT22;37900;52.996;6.278;2024-03-06T05:55:20;15.40;81.80
51863;DHT22;37900;52.996;6.278;2024-03-06T05:57:46;15.40;81.80
51863;DHT22;37900;52.996;6.278;2024-03-06T06:00:12;15.50;81.80
51863;DHT22;37900;52.996;6.278;2024-03-06T06:02:38;15.40;81.80
51863;DHT22;37900;52.996;6.278;2024-03-06T06:05:04;15.40;81.70
51863;DHT22;37900;52.996;6.278;2024-03-06T06:07:29;16.00;81.50
51863;DHT22;37900;52.996;6.278;2024-03-06T06:09:55;15.40;81.70
51863;DHT22;37900;52.996;6.278;2024-03-06T06:12:21;15.40;81.70
51863;DHT22;37900;52.996;6.278;2024-03-06T06:14:46;15.40;82.30
51863;DHT22;37900;52.996;6.278;2024-03-06T06:17:12;15.40;81.80
51863;DHT22;37900;52.996;6.278;2024-03-06T06:19:42;15.40;81.70
51863;DHT22;37900;52.996;6.278;2024-03-06T06:22:07;15.40;81.60
51863;DHT22;37900;52.996;6.278;2024-03-06T06:24:33;15.40;81.60
51863;DHT22;37900;52.996;6.278;2024-03-06T06:26:59;15.40;81.60
51863;DHT22;37900;52.996;6.278;2024-03-06T06:29:24;15.40;81.60
51863;DHT22;37900;52.996;6.278;2024-03-06T06:31:50;15.40;81.60
51863;DHT22;37900;52.996;6.278;2024-03-06T06:34:15;15.40;81.70
51863;DHT22;37900;52.996;6.278;2024-03-06T06:36:44;15.40;81.60
51863;DHT22;37900;52.996;6.278;2024-03-06T06:39:10;15.30;81.50
51863;DHT22;37900;52.996;6.278;2024-03-06T06:41:37;15.40;81.60
51863;DHT22;37900;52.996;6.278;2024-03-06T06:44:03;15.30;81.00
51863;DHT22;37900;52.996;6.278;2024-03-06T06:46:28;15.30;81.00
51863;DHT22;37900;52.996;6.278;2024-03-06T06:48:54;15.40;81.50
51863;DHT22;37900;52.996;6.278;2024-03-06T06:51:20;15.40;81.50
51863;DHT22;37900;52.996;6.278;2024-03-06T06:53:46;15.30;82.00
51863;DHT22;37900;52.996;6.278;2024-03-06T06:56:11;15.30;80.90
51863;DHT22;37900;52.996;6.278;2024-03-06T06:58:37;15.40;81.40
51863;DHT22;37900;52.996;6.278;2024-03-06T07:01:03;15.30;81.40
51863;DHT22;37900;52.996;6.278;2024-03-06T07:03:29;18.20;83.00
51863;DHT22;37900;52.996;6.278;2024-03-06T07:05:58;15.30;81.50
51863;DHT22;37900;52.996;6.278;2024-03-06T07:08:23;15.30;81.40
51863;DHT22;37900;52.996;6.278;2024-03-06T07:10:49;15.30;80.80
51863;DHT22;37900;52.996;6.278;2024-03-06T07:13:15;15.30;80.80
51863;DHT22;37900;52.996;6.278;2024-03-06T07:15:41;15.30;81.40
51863;DHT22;37900;52.996;6.278;2024-03-06T07:18:06;15.30;81.30
51863;DHT22;37900;52.996;6.278;2024-03-06T07:20:35;15.30;81.30
51863;DHT22;37900;52.996;6.278;2024-03-06T07:23:01;15.30;80.60
51863;DHT22;37900;52.996;6.278;2024-03-06T07:25:26;15.40;81.30
51863;DHT22;37900;52.996;6.278;2024-03-06T07:27:52;15.40;81.20
51863;DHT22;37900;52.996;6.278;2024-03-06T07:30:18;15.40;81.20
51863;DHT22;37900;52.996;6.278;2024-03-06T07:32:43;15.40;81.30
51863;DHT22;37900;52.996;6.278;2024-03-06T07:35:09;15.40;80.70
51863;DHT22;37900;52.996;6.278;2024-03-06T07:37:35;15.40;81.30
51863;DHT22;37900;52.996;6.278;2024-03-06T07:40:01;15.30;80.70
51863;DHT22;37900;52.996;6.278;2024-03-06T07:42:26;15.40;81.30
51863;DHT22;37900;52.996;6.278;2024-03-06T07:44:52;15.40;81.20
51863;DHT22;37900;52.996;6.278;2024-03-06T07:47:18;15.30;81.30
51863;DHT22;37900;52.996;6.278;2024-03-06T07:49:44;15.30;81.80
51863;DHT22;37900;52.996;6.278;2024-03-06T07:52:10;15.30;81.20
51863;DHT22;37900;52.996;6.278;2024-03-06T07:54:35;15.40;81.30
51863;DHT22;37900;52.996;6.278;2024-03-06T07:57:01;15.30;81.20
51863;DHT22;37900;52.996;6.278;2024-03-06T07:59:27;15.30;80.60
51863;DHT22;37900;52.996;6.278;2024-03-06T08:01:52;15.30;81.20
51863;DHT22;37900;52.996;6.278;2024-03-06T08:04:18;15.30;81.20
51863;DHT22;37900;52.996;6.278;2024-03-06T08:06:44;15.30;81.10
51863;DHT22;37900;52.996;6.278;2024-03-06T08:09:09;15.30;81.20
51863;DHT22;37900;52.996;6.278;2024-03-06T08:11:35;15.30;81.10
51863;DHT22;37900;52.996;6.278;2024-03-06T08:14:01;15.30;80.50
51863;DHT22;37900;52.996;6.278;2024-03-06T08:16:30;15.30;81.80
51863;DHT22;37900;52.996;6.278;2024-03-06T08:18:55;15.30;81.20
51863;DHT22;37900;52.996;6.278;2024-03-06T08:21:22;15.20;81.20
51863;DHT22;37900;52.996;6.278;2024-03-06T08:23:48;15.30;81.20
51863;DHT22;37900;52.996;6.278;2024-03-06T08:26:14;15.30;81.20
51863;DHT22;37900;52.996;6.278;2024-03-06T08:28:40;15.30;81.20
51863;DHT22;37900;52.996;6.278;2024-03-06T08:31:05;15.20;81.20
51863;DHT22;37900;52.996;6.278;2024-03-06T08:33:31;15.20;81.10
51863;DHT22;37900;52.996;6.278;2024-03-06T08:35:57;15.30;80.40
51863;DHT22;37900;52.996;6.278;2024-03-06T08:38:23;15.30;81.50
51863;DHT22;37900;52.996;6.278;2024-03-06T08:40:48;15.30;81.00
51863;DHT22;37900;52.996;6.278;2024-03-06T08:43:14;15.40;81.10
51863;DHT22;37900;52.996;6.278;2024-03-06T08:45:41;15.30;81.10
51863;DHT22;37900;52.996;6.278;2024-03-06T08:48:06;15.30;80.80
51863;DHT22;37900;52.996;6.278;2024-03-06T08:50:32;15.30;80.90
51863;DHT22;37900;52.996;6.278;2024-03-06T08:52:57;15.30;81.60
51863;DHT22;37900;52.996;6.278;2024-03-06T08:55:23;15.40;82.00
51863;DHT22;37900;52.996;6.278;2024-03-06T08:57:49;15.40;82.50
51863;DHT22;37900;52.996;6.278;2024-03-06T09:00:15;14.80;83.10
51863;DHT22;37900;52.996;6.278;2024-03-06T09:02:42;15.40;83.50
51863;DHT22;37900;52.996;6.278;2024-03-06T09:05:07;15.40;83.50
51863;DHT22;37900;52.996;6.278;2024-03-06T09:07:39;15.40;84.10
51863;DHT22;37900;52.996;6.278;2024-03-06T09:10:06;15.50;84.40
51863;DHT22;37900;52.996;6.278;2024-03-06T09:12:32;15.50;84.70
51863;DHT22;37900;52.996;6.278;2024-03-06T09:14:58;15.50;84.90
51863;DHT22;37900;52.996;6.278;2024-03-06T09:17:25;15.60;85.50
51863;DHT22;37900;52.996;6.278;2024-03-06T09:19:51;15.60;85.20
51863;DHT22;37900;52.996;6.278;2024-03-06T09:22:17;15.60;85.30
51863;DHT22;37900;52.996;6.278;2024-03-06T09:24:43;15.60;85.90
51863;DHT22;37900;52.996;6.278;2024-03-06T09:27:08;15.70;85.50
51863;DHT22;37900;52.996;6.278;2024-03-06T09:29:34;15.70;85.50
51863;DHT22;37900;52.996;6.278;2024-03-06T09:32:00;15.80;85.30
51863;DHT22;37900;52.996;6.278;2024-03-06T09:34:26;15.80;85.30
51863;DHT22;37900;52.996;6.278;2024-03-06T09:36:51;15.70;85.00
51863;DHT22;37900;52.996;6.278;2024-03-06T09:39:18;15.80;85.60
51863;DHT22;37900;52.996;6.278;2024-03-06T09:41:53;15.80;85.70
51863;DHT22;37900;52.996;6.278;2024-03-06T09:44:20;15.80;85.40
51863;DHT22;37900;52.996;6.278;2024-03-06T09:46:47;15.80;85.60
51863;DHT22;37900;52.996;6.278;2024-03-06T09:49:18;15.80;86.20
51863;DHT22;37900;52.996;6.278;2024-03-06T09:51:45;15.90;85.70
51863;DHT22;37900;52.996;6.278;2024-03-06T09:54:11;15.90;86.20
51863;DHT22;37900;52.996;6.278;2024-03-06T09:56:37;15.90;86.30
51863;DHT22;37900;52.996;6.278;2024-03-06T09:59:02;15.90;86.20
51863;DHT22;37900;52.996;6.278;2024-03-06T10:01:29;15.90;85.50
51863;DHT22;37900;52.996;6.278;2024-03-06T10:03:56;15.90;85.50
51863;DHT22;37900;52.996;6.278;2024-03-06T10:06:22;15.90;85.30
51863;DHT22;37900;52.996;6.278;2024-03-06T10:08:47;15.90;85.80
51863;DHT22;37900;52.996;6.278;2024-03-06T10:11:15;15.90;85.70
51863;DHT22;37900;52.996;6.278;2024-03-06T10:13:42;15.80;85.10
51863;DHT22;37900;52.996;6.278;2024-03-06T10:16:08;15.90;85.80
51863;DHT22;37900;52.996;6.278;2024-03-06T10:18:35;15.90;85.50
51863;DHT22;37900;52.996;6.278;2024-03-06T10:21:01;15.90;85.50
51863;DHT22;37900;52.996;6.278;2024-03-06T10:23:27;15.90;85.40
51863;DHT22;37900;52.996;6.278;2024-03-06T10:25:55;15.90;85.30
51863;DHT22;37900;52.996;6.278;2024-03-06T10:28:22;15.90;85.30
51863;DHT22;37900;52.996;6.278;2024-03-06T10:30:48;15.90;85.30
51863;DHT22;37900;52.996;6.278;2024-03-06T10:33:14;15.90;84.70
51863;DHT22;37900;52.996;6.278;2024-03-06T10:35:41;15.90;85.20
51863;DHT22;37900;52.996;6.278;2024-03-06T10:38:07;15.90;85.20
51863;DHT22;37900;52.996;6.278;2024-03-06T10:40:37;16.00;85.20
51863;DHT22;37900;52.996;6.278;2024-03-06T10:43:03;16.00;85.10
51863;DHT22;37900;52.996;6.278;2024-03-06T10:45:36;16.00;85.20
51863;DHT22;37900;52.996;6.278;2024-03-06T10:48:05;16.00;85.10
51863;DHT22;37900;52.996;6.278;2024-03-06T10:50:31;16.00;85.10
51863;DHT22;37900;52.996;6.278;2024-03-06T10:52:57;16.00;85.10
51863;DHT22;37900;52.996;6.278;2024-03-06T10:55:23;16.00;85.60
51863;DHT22;37900;52.996;6.278;2024-03-06T10:57:49;16.00;85.00
51863;DHT22;37900;52.996;6.278;2024-03-06T11:00:17;16.00;85.00
51863;DHT22;37900;52.996;6.278;2024-03-06T11:02:47;16.00;85.00
51863;DHT22;37900;52.996;6.278;2024-03-06T11:05:16;16.00;84.90
51863;DHT22;37900;52.996;6.278;2024-03-06T11:07:41;16.00;84.90
51863;DHT22;37900;52.996;6.278;2024-03-06T11:10:09;16.10;84.90
51863;DHT22;37900;52.996;6.278;2024-03-06T11:12:42;16.00;84.90
51863;DHT22;37900;52.996;6.278;2024-03-06T11:15:13;16.10;84.30
51863;DHT22;37900;52.996;6.278;2024-03-06T11:17:39;18.70;86.30
51863;DHT22;37900;52.996;6.278;2024-03-06T11:28:04;16.10;84.80
51863;DHT22;37900;52.996;6.278;2024-03-06T11:30:30;16.10;84.90
51863;DHT22;37900;52.996;6.278;2024-03-06T11:33:00;16.10;85.40
51863;DHT22;37900;52.996;6.278;2024-03-06T11:35:28;16.10;85.80
51863;DHT22;37900;52.996;6.278;2024-03-06T11:37:54;16.10;85.40
51863;DHT22;37900;52.996;6.278;2024-03-06T11:40:23;16.20;86.00
51863;DHT22;37900;52.996;6.278;2024-03-06T11:42:52;16.10;85.50
51863;DHT22;37900;52.996;6.278;2024-03-06T11:45:18;16.10;86.00
51863;DHT22;37900;52.996;6.278;2024-03-06T11:48:00;16.20;86.10
51863;DHT22;37900;52.996;6.278;2024-03-06T11:50:26;16.20;86.10
51863;DHT22;37900;52.996;6.278;2024-03-06T11:52:53;16.70;86.40
51863;DHT22;37900;52.996;6.278;2024-03-06T11:55:21;16.10;85.70
51863;DHT22;37900;52.996;6.278;2024-03-06T11:57:47;16.10;85.70
51863;DHT22;37900;52.996;6.278;2024-03-06T12:00:13;16.20;86.30
51863;DHT22;37900;52.996;6.278;2024-03-06T12:02:40;16.20;86.40
51863;DHT22;37900;52.996;6.278;2024-03-06T12:05:06;16.20;86.50
51863;DHT22;37900;52.996;6.278;2024-03-06T12:07:31;16.20;86.50
51863;DHT22;37900;52.996;6.278;2024-03-06T12:09:57;16.20;86.60
51863;DHT22;37900;52.996;6.278;2024-03-06T12:12:24;16.20;86.10
51863;DHT22;37900;52.996;6.278;2024-03-06T12:14:57;16.20;86.70
51863;DHT22;37900;52.996;6.278;2024-03-06T12:17:23;16.20;86.60
51863;DHT22;37900;52.996;6.278;2024-03-06T12:19:48;16.20;86.60
51863;DHT22;37900;52.996;6.278;2024-03-06T12:22:14;16.20;87.10
51863;DHT22;37900;52.996;6.278;2024-03-06T12:24:40;16.20;86.60
51863;DHT22;37900;52.996;6.278;2024-03-06T12:27:07;16.20;87.10
51863;DHT22;37900;52.996;6.278;2024-03-06T12:29:34;16.20;87.00
51863;DHT22;37900;52.996;6.278;2024-03-06T12:32:01;16.20;86.30
51863;DHT22;37900;52.996;6.278;2024-03-06T12:34:27;16.20;86.80
51863;DHT22;37900;52.996;6.278;2024-03-06T12:36:52;16.20;86.80
51863;DHT22;37900;52.996;6.278;2024-03-06T12:39:18;16.20;86.70
51863;DHT22;37900;52.996;6.278;2024-03-06T12:41:47;16.20;86.60
51863;DHT22;37900;52.996;6.278;2024-03-06T12:44:12;16.20;86.60
51863;DHT22;37900;52.996;6.278;2024-03-06T12:46:38;16.20;86.50
51863;DHT22;37900;52.996;6.278;2024-03-06T12:49:04;16.10;85.90
51863;DHT22;37900;52.996;6.278;2024-03-06T12:51:29;16.10;86.40
51863;DHT22;37900;52.996;6.278;2024-03-06T12:53:55;16.20;85.90
51863;DHT22;37900;52.996;6.278;2024-03-06T12:56:21;16.20;86.40
51863;DHT22;37900;52.996;6.278;2024-03-06T12:58:46;16.20;86.40
51863;DHT22;37900;52.996;6.278;2024-03-06T13:01:12;16.10;85.80
51863;DHT22;37900;52.996;6.278;2024-03-06T13:03:37;16.10;85.70
51863;DHT22;37900;52.996;6.278;2024-03-06T13:06:03;16.10;86.20
51863;DHT22;37900;52.996;6.278;2024-03-06T13:08:29;16.10;85.70
51863;DHT22;37900;52.996;6.278;2024-03-06T13:10:55;16.10;85.70
51863;DHT22;37900;52.996;6.278;2024-03-06T13:13:21;16.10;85.60
51863;DHT22;37900;52.996;6.278;2024-03-06T13:15:49;16.10;86.10
51863;DHT22;37900;52.996;6.278;2024-03-06T13:18:15;16.10;86.20
51863;DHT22;37900;52.996;6.278;2024-03-06T13:20:41;16.10;86.10
51863;DHT22;37900;52.996;6.278;2024-03-06T13:23:06;16.10;86.10
51863;DHT22;37900;52.996;6.278;2024-03-06T13:25:32;16.20;86.30
51863;DHT22;37900;52.996;6.278;2024-03-06T13:27:58;16.10;86.30
51863;DHT22;37900;52.996;6.278;2024-03-06T13:30:24;16.10;85.80
51863;DHT22;37900;52.996;6.278;2024-03-06T13:32:50;16.10;86.00
51863;DHT22;37900;52.996;6.278;2024-03-06T13:35:15;16.10;87.20
51863;DHT22;37900;52.996;6.278;2024-03-06T13:37:42;16.10;86.40
51863;DHT22;37900;52.996;6.278;2024-03-06T13:40:08;16.10;86.80
51863;DHT22;37900;52.996;6.278;2024-03-06T13:42:34;16.10;86.80
51863;DHT22;37900;52.996;6.278;2024-03-06T13:45:01;16.10;86.70
51863;DHT22;37900;52.996;6.278;2024-03-06T13:47:29;16.10;86.60
51863;DHT22;37900;52.996;6.278;2024-03-06T13:49:55;16.10;86.00
51863;DHT22;37900;52.996;6.278;2024-03-06T13:52:21;16.10;86.50
51863;DHT22;37900;52.996;6.278;2024-03-06T13:54:49;16.10;86.60
51863;DHT22;37900;52.996;6.278;2024-03-06T13:57:14;16.10;86.40
51863;DHT22;37900;52.996;6.278;2024-03-06T13:59:41;16.10;85.90
51863;DHT22;37900;52.996;6.278;2024-03-06T14:02:06;16.10;86.40
51863;DHT22;37900;52.996;6.278;2024-03-06T14:04:34;16.10;85.90
51863;DHT22;37900;52.996;6.278;2024-03-06T14:07:00;17.20;87.00
51863;DHT22;37900;52.996;6.278;2024-03-06T14:09:26;16.10;85.90
51863;DHT22;37900;52.996;6.278;2024-03-06T14:11:52;16.10;86.50
51863;DHT22;37900;52.996;6.278;2024-03-06T14:14:18;16.10;86.40
51863;DHT22;37900;52.996;6.278;2024-03-06T14:16:44;16.00;85.90
51863;DHT22;37900;52.996;6.278;2024-03-06T14:19:10;16.10;85.90
51863;DHT22;37900;52.996;6.278;2024-03-06T14:21:36;16.10;86.50
51863;DHT22;37900;52.996;6.278;2024-03-06T14:24:02;16.10;86.40
51863;DHT22;37900;52.996;6.278;2024-03-06T14:26:32;16.10;86.30
51863;DHT22;37900;52.996;6.278;2024-03-06T14:29:00;16.10;86.30
51863;DHT22;37900;52.996;6.278;2024-03-06T14:31:27;16.10;86.20
51863;DHT22;37900;52.996;6.278;2024-03-06T14:33:53;16.10;86.20
51863;DHT22;37900;52.996;6.278;2024-03-06T14:36:19;16.10;86.20
51863;DHT22;37900;52.996;6.278;2024-03-06T14:38:47;16.00;85.50
51863;DHT22;37900;52.996;6.278;2024-03-06T14:41:12;14.20;85.10
51863;DHT22;37900;52.996;6.278;2024-03-06T14:43:38;13.40;84.60
51863;DHT22;37900;52.996;6.278;2024-03-06T14:46:07;16.00;85.40
51863;DHT22;37900;52.996;6.278;2024-03-06T14:48:34;16.00;85.90
51863;DHT22;37900;52.996;6.278;2024-03-06T14:51:00;16.00;85.30
51863;DHT22;37900;52.996;6.278;2024-03-06T14:53:25;16.00;85.30
51863;DHT22;37900;52.996;6.278;2024-03-06T14:55:51;16.00;85.20
51863;DHT22;37900;52.996;6.278;2024-03-06T14:58:17;16.00;85.20
51863;DHT22;37900;52.996;6.278;2024-03-06T15:00:43;16.00;85.80
51863;DHT22;37900;52.996;6.278;2024-03-06T15:03:08;16.00;85.10
51863;DHT22;37900;52.996;6.278;2024-03-06T15:05:34;16.00;85.70
51863;DHT22;37900;52.996;6.278;2024-03-06T15:08:00;16.00;85.80
51863;DHT22;37900;52.996;6.278;2024-03-06T15:10:26;16.00;86.10
51863;DHT22;37900;52.996;6.278;2024-03-06T15:12:51;16.70;86.50
51863;DHT22;37900;52.996;6.278;2024-03-06T15:15:17;16.00;86.20
51863;DHT22;37900;52.996;6.278;2024-03-06T15:17:42;16.10;86.20
51863;DHT22;37900;52.996;6.278;2024-03-06T15:20:09;16.10;86.10
51863;DHT22;37900;52.996;6.278;2024-03-06T15:22:36;16.30;85.70
51863;DHT22;37900;52.996;6.278;2024-03-06T15:25:07;16.10;86.20
51863;DHT22;37900;52.996;6.278;2024-03-06T15:27:34;16.10;86.00
51863;DHT22;37900;52.996;6.278;2024-03-06T15:30:01;16.10;85.60
51863;DHT22;37900;52.996;6.278;2024-03-06T15:32:27;16.10;86.00